createdAt,value
2023-03-06T07:12:22.692Z,64.53
2023-03-06T07:14:56.477Z,64.44
2023-03-06T07:17:24.511Z,64.67
2023-03-06T07:19:52.333Z,64.76
2023-03-06T07:22:20.242Z,64.81
2023-03-06T07:24:47.972Z,64.85
2023-03-06T07:27:15.924Z,64.97
2023-03-06T07:29:44.969Z,65.04
2023-03-06T07:32:12.728Z,65.08
2023-03-06T07:34:41.431Z,65.17
2023-03-06T07:37:09.077Z,65.10
2023-03-06T07:39:36.741Z,65.15
2023-03-06T07:42:08.011Z,65.19
2023-03-06T07:44:37.717Z,65.20
2023-03-06T07:47:06.385Z,65.20
2023-03-06T07:49:34.963Z,65.40
2023-03-06T07:52:02.874Z,65.30
2023-03-06T07:54:35.525Z,65.18
2023-03-06T07:57:03.601Z,65.06
2023-03-06T07:59:31.787Z,65.09
2023-03-06T08:01:59.378Z,65.09
2023-03-06T08:04:29.067Z,65.16
2023-03-06T08:07:03.716Z,65.18
2023-03-06T08:09:33.512Z,65.14
2023-03-06T08:12:01.482Z,65.21
2023-03-06T08:14:29.179Z,65.10
2023-03-06T08:16:57.217Z,64.97
2023-03-06T08:19:25.190Z,64.95
2023-03-06T08:21:53.052Z,64.97
2023-03-06T08:24:20.942Z,64.95
2023-03-06T08:26:48.695Z,64.98
2023-03-06T08:29:16.402Z,64.96
2023-03-06T08:31:46.930Z,64.84
2023-03-06T08:34:20.708Z,64.76
2023-03-06T08:36:48.793Z,64.78
2023-03-06T08:39:17.139Z,64.91
2023-03-06T08:41:45.980Z,64.85
2023-03-06T08:44:14.410Z,64.88
2023-03-06T08:46:46.915Z,64.95
2023-03-06T08:49:18.893Z,64.81
2023-03-06T08:51:48.087Z,64.63
2023-03-06T08:54:18.850Z,64.47
2023-03-06T08:56:46.900Z,64.19
2023-03-06T08:59:14.687Z,63.97
2023-03-06T09:01:42.542Z,63.84
2023-03-06T09:04:13.260Z,63.67
2023-03-06T09:06:44.036Z,63.32
2023-03-06T09:09:13.026Z,63.68
2023-03-06T09:11:40.778Z,63.73
2023-03-06T09:14:08.561Z,63.24
2023-03-06T09:16:36.336Z,63.36
2023-03-06T09:19:04.560Z,63.35
2023-03-06T09:21:32.416Z,63.25
2023-03-06T09:24:00.605Z,63.45
2023-03-06T09:26:43.472Z,63.36
2023-03-06T09:29:16.214Z,62.90
2023-03-06T09:31:45.263Z,62.92
2023-03-06T09:34:12.978Z,62.51
2023-03-06T09:36:55.535Z,62.06
2023-03-06T09:39:27.548Z,62.23
2023-03-06T09:41:59.474Z,62.17
2023-03-06T09:44:39.266Z,61.54
2023-03-06T09:47:25.696Z,61.27
2023-03-06T09:50:05.448Z,61.14
2023-03-06T09:52:36.040Z,61.20
2023-03-06T09:55:10.198Z,61.31
2023-03-06T09:57:45.439Z,61.31
2023-03-06T10:00:24.494Z,60.97
2023-03-06T10:03:16.058Z,61.14
2023-03-06T10:06:10.376Z,61.10
2023-03-06T10:08:53.733Z,61.23
2023-03-06T10:11:33.313Z,61.39
2023-03-06T10:14:39.632Z,61.10
2023-03-06T10:17:17.004Z,61.07
2023-03-06T10:19:48.567Z,60.84
2023-03-06T10:22:38.415Z,60.87
2023-03-06T10:25:25.579Z,60.68
2023-03-06T10:27:59.637Z,60.58
2023-03-06T10:30:49.542Z,60.96
2023-03-06T10:33:45.179Z,60.48
2023-03-06T10:36:20.096Z,60.00
2023-03-06T10:38:49.510Z,60.19
2023-03-06T10:41:38.436Z,59.94
2023-03-06T10:44:13.564Z,59.96
2023-03-06T10:46:47.610Z,59.85
2023-03-06T10:49:33.796Z,60.02
2023-03-06T10:52:21.357Z,60.13
2023-03-06T10:54:49.109Z,60.50
2023-03-06T10:57:32.822Z,60.52
2023-03-06T11:00:24.705Z,59.77
2023-03-06T11:03:21.669Z,58.66
2023-03-06T11:06:13.606Z,58.56
2023-03-06T11:08:44.147Z,58.66
2023-03-06T11:11:36.367Z,58.62
2023-03-06T11:14:16.822Z,58.42
2023-03-06T11:16:53.160Z,58.78
2023-03-06T11:19:29.271Z,58.86
2023-03-06T11:22:18.817Z,58.49
2023-03-06T11:24:50.454Z,58.48
2023-03-06T11:27:30.849Z,58.45
2023-03-06T11:30:00.525Z,58.14
2023-03-06T11:32:35.044Z,58.38
2023-03-06T11:35:12.074Z,58.50
2023-03-06T11:37:56.857Z,58.43
2023-03-06T11:40:28.477Z,58.86
2023-03-06T11:43:17.366Z,58.63
2023-03-06T11:46:08.848Z,58.25
2023-03-06T11:48:45.243Z,58.04
2023-03-06T11:51:21.929Z,58.44
2023-03-06T11:53:49.870Z,58.55
2023-03-06T11:56:20.287Z,58.72
2023-03-06T11:59:10.176Z,58.74
2023-03-06T12:01:46.839Z,58.74
2023-03-06T12:04:30.388Z,58.56
2023-03-06T12:07:29.352Z,58.36
2023-03-06T12:10:09.052Z,58.62
2023-03-06T12:13:07.389Z,58.26
2023-03-06T12:16:07.786Z,57.22
2023-03-06T12:19:10.202Z,57.30
2023-03-06T12:22:01.204Z,57.27
2023-03-06T12:24:55.774Z,57.37
2023-03-06T12:27:45.755Z,57.54
2023-03-06T12:30:48.298Z,57.87
2023-03-06T12:33:35.437Z,58.04
2023-03-06T12:36:34.822Z,58.18
2023-03-06T12:39:24.617Z,57.98
2023-03-06T12:42:23.661Z,57.78
2023-03-06T12:45:05.917Z,57.50
2023-03-06T12:47:45.729Z,57.46
2023-03-06T12:50:24.389Z,57.97
2023-03-06T12:52:56.893Z,57.96
2023-03-06T12:55:29.347Z,58.10
2023-03-06T12:58:34.130Z,58.21
2023-03-06T13:01:24.440Z,58.15
2023-03-06T13:04:01.450Z,58.02
2023-03-06T13:07:02.677Z,58.24
2023-03-06T13:09:51.307Z,58.20
2023-03-06T13:12:22.897Z,58.46
2023-03-06T13:15:05.265Z,58.61
2023-03-06T13:17:40.378Z,58.53
2023-03-06T13:20:49.269Z,58.46
2023-03-06T13:23:33.958Z,58.55
2023-03-06T13:26:20.103Z,58.62
2023-03-06T13:28:51.201Z,58.32
2023-03-06T13:31:48.926Z,58.40
2023-03-06T13:34:40.338Z,58.50
2023-03-06T13:37:36.909Z,58.37
2023-03-06T13:40:05.054Z,58.69
2023-03-06T13:42:53.875Z,58.57
2023-03-06T13:45:39.138Z,58.45
2023-03-06T13:48:33.642Z,58.54
2023-03-06T13:51:13.931Z,58.75
2023-03-06T13:54:04.388Z,58.83
2023-03-06T13:56:53.874Z,58.81
2023-03-06T13:59:37.110Z,58.89
2023-03-06T14:02:04.939Z,58.92
2023-03-06T14:05:05.623Z,58.95
2023-03-06T14:07:40.452Z,59.01
2023-03-06T14:10:08.275Z,58.93
2023-03-06T14:12:40.662Z,59.07
2023-03-06T14:15:22.511Z,59.11
2023-03-06T14:17:59.109Z,59.19
2023-03-06T14:20:35.294Z,59.29
2023-03-06T14:23:21.935Z,59.26
2023-03-06T14:26:17.439Z,59.21
2023-03-06T14:28:57.279Z,59.32
2023-03-06T14:31:30.439Z,59.40
2023-03-06T14:33:59.552Z,59.43
2023-03-06T14:36:44.391Z,59.54
2023-03-06T14:39:43.219Z,59.59
2023-03-06T14:42:53.417Z,59.74
2023-03-06T14:45:21.423Z,59.78
2023-03-06T14:47:53.297Z,59.77
2023-03-06T14:50:28.647Z,59.68
2023-03-06T14:53:00.443Z,59.75
2023-03-06T14:55:32.819Z,59.84
2023-03-06T14:58:11.397Z,59.91
2023-03-06T15:00:46.427Z,59.97
2023-03-06T15:03:41.768Z,59.92
2023-03-06T15:06:15.330Z,59.80
2023-03-06T15:08:45.958Z,59.84
2023-03-06T15:11:14.445Z,59.83
2023-03-06T15:13:42.777Z,59.72
2023-03-06T15:16:13.587Z,59.94
2023-03-06T15:19:02.661Z,59.99
2023-03-06T15:21:36.658Z,59.88
2023-03-06T15:24:40.222Z,59.92
2023-03-06T15:27:18.145Z,60.03
2023-03-06T15:29:45.893Z,59.80
2023-03-06T15:32:15.044Z,59.79
2023-03-06T15:34:42.780Z,59.97
2023-03-06T15:37:27.795Z,60.00
2023-03-06T15:40:09.458Z,60.12
2023-03-06T15:42:37.445Z,60.03
2023-03-06T15:45:26.924Z,60.06
2023-03-06T15:47:55.800Z,59.85
2023-03-06T15:50:26.059Z,59.86
2023-03-06T15:52:54.049Z,59.88
2023-03-06T15:55:25.975Z,59.94
2023-03-06T15:57:56.747Z,59.95
2023-03-06T16:00:28.731Z,60.02
2023-03-06T16:02:58.309Z,59.99
2023-03-06T16:05:27.387Z,60.01
2023-03-06T16:07:55.911Z,60.04
2023-03-06T16:10:27.057Z,60.14
2023-03-06T16:12:59.592Z,60.10
2023-03-06T16:15:30.580Z,59.91
2023-03-06T16:17:59.730Z,60.11
2023-03-06T16:20:28.925Z,60.20
2023-03-06T16:22:56.916Z,60.28
2023-03-06T16:25:27.723Z,60.04
2023-03-06T16:27:57.958Z,60.15
2023-03-06T16:30:29.165Z,60.25
2023-03-06T16:32:57.700Z,60.47
2023-03-06T16:35:26.016Z,60.33
2023-03-06T16:37:54.051Z,60.44
2023-03-06T16:40:22.176Z,60.43
2023-03-06T16:42:52.410Z,60.53
2023-03-06T16:45:22.065Z,60.42
2023-03-06T16:47:50.224Z,60.31
2023-03-06T16:50:40.309Z,60.39
2023-03-06T16:53:08.078Z,60.39
2023-03-06T16:55:35.771Z,60.56
2023-03-06T16:58:03.691Z,60.52
2023-03-06T17:00:33.091Z,60.66
2023-03-06T17:03:02.282Z,60.62
2023-03-06T17:05:34.192Z,60.64
2023-03-06T17:08:03.506Z,60.79
2023-03-06T17:10:31.335Z,60.80
2023-03-06T17:12:58.942Z,60.82
2023-03-06T17:15:26.654Z,60.93
2023-03-06T17:17:56.828Z,60.81
2023-03-06T17:20:24.637Z,60.79
2023-03-06T17:22:52.291Z,60.62
2023-03-06T17:25:19.966Z,60.82
2023-03-06T17:27:47.573Z,60.91
2023-03-06T17:30:15.752Z,60.96
2023-03-06T17:32:43.407Z,60.87
2023-03-06T17:35:11.337Z,61.08
2023-03-06T17:37:39.107Z,61.09
2023-03-06T17:40:10.551Z,60.91
2023-03-06T17:42:38.266Z,60.93
2023-03-06T17:45:09.168Z,61.01
2023-03-06T17:47:38.021Z,61.15
2023-03-06T17:50:07.334Z,61.00
2023-03-06T17:52:35.091Z,61.13
2023-03-06T17:55:03.546Z,61.14
2023-03-06T17:57:31.274Z,61.25
2023-03-06T17:59:59.166Z,61.24
2023-03-06T18:02:28.313Z,61.21
2023-03-06T18:04:58.258Z,61.26
2023-03-06T18:07:26.600Z,61.35
2023-03-06T18:09:54.316Z,61.38
2023-03-06T18:12:22.363Z,61.28
2023-03-06T18:14:50.666Z,61.36
2023-03-06T18:17:18.685Z,61.38
2023-03-06T18:19:46.460Z,61.49
2023-03-06T18:22:14.146Z,61.60
2023-03-06T18:24:41.856Z,61.63
2023-03-06T18:27:09.728Z,61.67
2023-03-06T18:29:37.510Z,61.67
2023-03-06T18:32:05.533Z,61.73
2023-03-06T18:34:33.270Z,61.76
2023-03-06T18:37:01.232Z,61.71
2023-03-06T18:39:28.956Z,61.94
2023-03-06T18:41:56.770Z,61.92
2023-03-06T18:44:24.536Z,62.10
2023-03-06T18:46:52.425Z,62.13
2023-03-06T18:49:20.347Z,62.17
2023-03-06T18:51:50.350Z,62.20
2023-03-06T18:54:18.472Z,62.19
2023-03-06T18:56:46.394Z,62.29
2023-03-06T18:59:17.604Z,62.08
2023-03-06T19:01:47.687Z,62.14
2023-03-06T19:04:15.879Z,62.03
2023-03-06T19:06:43.999Z,62.23
2023-03-06T19:09:12.050Z,62.20
2023-03-06T19:11:40.384Z,62.13
2023-03-06T19:14:08.508Z,62.34
2023-03-06T19:16:36.380Z,62.28
2023-03-06T19:19:04.161Z,62.26
2023-03-06T19:21:31.959Z,62.40
2023-03-06T19:24:01.697Z,62.42
2023-03-06T19:26:29.630Z,62.50
2023-03-06T19:28:57.425Z,62.46
2023-03-06T19:31:27.476Z,62.44
2023-03-06T19:33:56.729Z,62.49
2023-03-06T19:36:28.642Z,62.56
2023-03-06T19:38:58.558Z,62.60
2023-03-06T19:41:27.206Z,62.52
2023-03-06T19:43:58.307Z,62.40
2023-03-06T19:46:26.774Z,62.52
2023-03-06T19:49:00.630Z,62.58
2023-03-06T19:51:29.434Z,62.67
2023-03-06T19:53:58.807Z,62.78
2023-03-06T19:56:29.284Z,62.79
2023-03-06T19:58:57.336Z,62.68
2023-03-06T20:01:27.418Z,62.83
2023-03-06T20:03:59.348Z,62.72
2023-03-06T20:06:33.457Z,62.67
2023-03-06T20:09:04.138Z,62.62
2023-03-06T20:11:32.366Z,62.81
2023-03-06T20:14:02.791Z,62.86
2023-03-06T20:16:31.645Z,62.84
2023-03-06T20:19:00.928Z,62.69
2023-03-06T20:21:31.759Z,62.67
2023-03-06T20:23:59.834Z,62.63
2023-03-06T20:26:28.993Z,62.53
2023-03-06T20:28:57.477Z,62.56
2023-03-06T20:31:28.437Z,62.73
2023-03-06T20:33:58.224Z,62.72
2023-03-06T20:36:29.474Z,62.87
2023-03-06T20:39:00.388Z,62.65
2023-03-06T20:41:29.743Z,62.64
2023-03-06T20:44:02.336Z,62.78
2023-03-06T20:46:30.758Z,62.91
2023-03-06T20:48:59.368Z,62.93
2023-03-06T20:51:32.622Z,62.97
2023-03-06T20:54:02.227Z,63.16
2023-03-06T20:56:33.026Z,63.09
2023-03-06T20:59:00.865Z,63.15
2023-03-06T21:01:34.119Z,63.24
2023-03-06T21:04:04.409Z,63.19
2023-03-06T21:06:33.208Z,63.26
2023-03-06T21:09:02.161Z,63.31
2023-03-06T21:11:30.167Z,63.42
2023-03-06T21:13:58.084Z,63.34
2023-03-06T21:16:27.338Z,63.40
2023-03-06T21:18:55.891Z,63.44
2023-03-06T21:21:32.838Z,63.42
2023-03-06T21:24:02.366Z,63.42
2023-03-06T21:26:33.573Z,63.29
2023-03-06T21:29:02.152Z,63.43
2023-03-06T21:31:30.734Z,63.48
2023-03-06T21:33:58.907Z,63.42
2023-03-06T21:36:27.111Z,63.57
2023-03-06T21:38:55.367Z,63.40
2023-03-06T21:41:25.747Z,63.59
2023-03-06T21:43:58.308Z,63.53
2023-03-06T21:46:27.019Z,63.48
2023-03-06T21:48:55.081Z,63.44
2023-03-06T21:51:24.955Z,63.40
2023-03-06T21:53:53.840Z,63.53
2023-03-06T21:56:25.144Z,63.59
2023-03-06T21:58:53.561Z,63.42
2023-03-06T22:01:28.329Z,63.45
2023-03-06T22:03:58.268Z,63.41
2023-03-06T22:06:27.358Z,63.52
2023-03-06T22:08:56.509Z,63.53
2023-03-06T22:11:26.298Z,63.62
2023-03-06T22:13:54.021Z,63.58
2023-03-06T22:16:21.668Z,63.60
2023-03-06T22:18:51.444Z,63.71
2023-03-06T22:21:21.072Z,63.73
2023-03-06T22:23:50.613Z,63.67
2023-03-06T22:26:18.537Z,63.74
2023-03-06T22:28:46.547Z,63.74
2023-03-06T22:31:23.928Z,63.87
2023-03-06T22:33:56.631Z,63.87
2023-03-06T22:36:25.034Z,63.76
2023-03-06T22:38:58.671Z,63.72
2023-03-06T22:41:27.483Z,63.73
2023-03-06T22:43:57.054Z,63.75
2023-03-06T22:46:25.091Z,63.85
2023-03-06T22:48:52.873Z,63.92
2023-03-06T22:51:21.180Z,63.88
2023-03-06T22:53:49.322Z,63.87
2023-03-06T22:56:19.848Z,63.86
2023-03-06T22:58:48.453Z,63.90
2023-03-06T23:01:17.887Z,63.90
2023-03-06T23:03:51.053Z,63.96
2023-03-06T23:06:23.593Z,63.94
2023-03-06T23:09:02.045Z,63.92
2023-03-06T23:11:30.708Z,63.87
2023-03-06T23:13:58.986Z,63.88
2023-03-06T23:16:26.732Z,64.02
2023-03-06T23:18:54.824Z,64.14
2023-03-06T23:21:23.312Z,64.00
2023-03-06T23:23:56.306Z,64.04
2023-03-06T23:26:26.511Z,64.06
2023-03-06T23:28:54.503Z,64.06
2023-03-06T23:31:28.630Z,64.17
2023-03-06T23:33:58.560Z,64.10
2023-03-06T23:36:27.039Z,64.23
2023-03-06T23:38:55.091Z,64.29
2023-03-06T23:41:23.842Z,64.22
2023-03-06T23:43:54.078Z,64.31
2023-03-06T23:46:23.012Z,64.24
2023-03-06T23:48:50.706Z,64.28
2023-03-06T23:51:20.637Z,64.32
2023-03-06T23:53:56.975Z,64.38
2023-03-06T23:56:26.562Z,64.36
2023-03-06T23:58:54.408Z,64.34
